createdAt,value
2023-01-05T03:22:26.905Z,9.762789
2023-01-05T03:23:28.055Z,9.762650
2023-01-05T03:24:26.890Z,9.762731
2023-01-05T03:25:26.879Z,9.762640
2023-01-05T03:26:28.052Z,9.762665
2023-01-05T03:27:26.849Z,9.762647
2023-01-05T03:28:26.828Z,9.762778
2023-01-05T03:29:28.493Z,9.762845
2023-01-05T03:30:26.814Z,9.762916
2023-01-05T03:31:26.813Z,9.761711
2023-01-05T03:32:34.766Z,9.762226
2023-01-05T03:33:28.816Z,9.763008
2023-01-05T03:34:26.804Z,9.762846
2023-01-05T03:35:29.237Z,9.762776
2023-01-05T03:36:27.789Z,9.762760
2023-01-05T03:37:26.719Z,9.762718
2023-01-05T03:38:29.556Z,9.762772
2023-01-05T03:39:26.741Z,9.762728
2023-01-05T03:40:26.697Z,9.762918
2023-01-05T03:41:30.146Z,9.762618
2023-01-05T03:42:26.678Z,9.762815
2023-01-05T03:43:26.668Z,9.762563
2023-01-05T03:44:30.758Z,9.762833
2023-01-05T03:45:26.649Z,9.762776
2023-01-05T03:46:26.676Z,9.762712
2023-01-05T03:47:27.746Z,9.762677
2023-01-05T03:48:26.625Z,9.762775
2023-01-05T03:49:26.592Z,9.762767
2023-01-05T03:50:27.316Z,9.762755
2023-01-05T03:51:26.618Z,9.762772
2023-01-05T03:52:26.594Z,9.762803
2023-01-05T03:53:26.556Z,9.762802
2023-01-05T03:54:26.577Z,9.762772
2023-01-05T03:55:26.557Z,9.762800
2023-01-05T03:56:26.536Z,9.762899
2023-01-05T03:57:26.535Z,9.762906
2023-01-05T03:58:26.520Z,9.762766
2023-01-05T03:59:26.522Z,9.762947
2023-01-05T04:00:26.488Z,9.762780
2023-01-05T04:01:26.604Z,9.762584
2023-01-05T04:02:26.695Z,9.762805
2023-01-05T04:03:31.624Z,9.762712
2023-01-05T04:04:28.507Z,9.762884
2023-01-05T04:05:26.439Z,9.762877
2023-01-05T04:06:26.476Z,9.762810
2023-01-05T04:07:26.424Z,9.762719
2023-01-05T04:08:26.434Z,9.762709
2023-01-05T04:09:26.422Z,9.762672
2023-01-05T04:10:26.423Z,9.762756
2023-01-05T04:11:26.385Z,9.762746
2023-01-05T04:12:26.381Z,9.762774
2023-01-05T04:13:26.352Z,9.763086
2023-01-05T04:14:26.374Z,9.764150
2023-01-05T04:15:26.340Z,9.765345
2023-01-05T04:17:49.415Z,9.765408
2023-01-05T04:18:26.298Z,9.765408
2023-01-05T04:19:26.479Z,9.765408
2023-01-05T04:20:26.292Z,9.765408
2023-01-05T04:21:26.275Z,9.765408
2023-01-05T04:22:27.576Z,9.765408
2023-01-05T04:23:27.294Z,9.765408
2023-01-05T04:24:26.232Z,9.765408
2023-01-05T04:25:26.259Z,9.765408
2023-01-05T04:26:26.199Z,9.765408
2023-01-05T04:27:26.223Z,9.765408
2023-01-05T04:28:26.222Z,9.765408
2023-01-05T04:29:26.200Z,9.765408
2023-01-05T04:30:26.204Z,9.765408
2023-01-05T04:31:26.220Z,9.765408
2023-01-05T04:32:26.168Z,9.765408
2023-01-05T04:33:26.122Z,9.765408
2023-01-05T04:34:26.143Z,9.765408
2023-01-05T04:35:26.150Z,9.765408
2023-01-05T04:36:26.122Z,9.765408
2023-01-05T04:37:26.151Z,9.765408
2023-01-05T04:38:26.104Z,9.765408
2023-01-05T04:39:26.110Z,9.765408
2023-01-05T04:40:26.091Z,9.765408
2023-01-05T04:41:26.055Z,9.765408
2023-01-05T04:42:27.389Z,9.765408
2023-01-05T04:43:26.093Z,9.765408
2023-01-05T04:44:26.041Z,9.765408
2023-01-05T04:45:26.952Z,9.765408
2023-01-05T04:46:26.088Z,9.765408
2023-01-05T04:47:25.991Z,9.765408
2023-01-05T04:48:27.425Z,9.765408
2023-01-05T04:49:25.989Z,9.765408
2023-01-05T04:50:25.977Z,9.765408
2023-01-05T04:51:26.270Z,9.765408
2023-01-05T04:52:25.949Z,9.765408
2023-01-05T04:53:25.940Z,9.765408
2023-01-05T04:54:28.212Z,9.765408
2023-01-05T04:55:25.955Z,9.765408
2023-01-05T04:56:25.938Z,9.765408
2023-01-05T04:57:28.317Z,9.765408
2023-01-05T04:58:25.893Z,9.765408
2023-01-05T04:59:25.890Z,9.765408
2023-01-05T05:01:45.382Z,9.765408
2023-01-05T05:01:47.103Z,9.765408
2023-01-05T05:02:47.161Z,9.765408
2023-01-05T05:03:47.100Z,9.765408
2023-01-05T05:04:46.995Z,9.765408
2023-01-05T05:05:46.962Z,9.765408
2023-01-05T05:06:46.950Z,9.765408
2023-01-05T05:07:46.979Z,9.765408
2023-01-05T05:08:46.943Z,9.765408
2023-01-05T05:09:46.927Z,9.765408
2023-01-05T05:10:46.933Z,9.765408
2023-01-05T05:11:46.902Z,9.765408
2023-01-05T05:12:46.889Z,9.765408
2023-01-05T05:13:46.892Z,9.765408
2023-01-05T05:14:46.874Z,9.765408
2023-01-05T05:15:46.915Z,9.765408
2023-01-05T05:16:46.873Z,9.765408
2023-01-05T05:17:47.468Z,9.765408
2023-01-05T05:18:46.820Z,9.765408
2023-01-05T05:19:46.811Z,9.765408
2023-01-05T05:20:47.528Z,9.765408
2023-01-05T05:21:46.836Z,9.765408
2023-01-05T05:22:46.848Z,9.765408
2023-01-05T05:23:48.446Z,9.765408
2023-01-05T05:24:46.784Z,9.765408
2023-01-05T05:25:46.787Z,9.765408
2023-01-05T05:26:47.714Z,9.765408
2023-01-05T05:27:46.727Z,9.765408
2023-01-05T05:28:46.716Z,9.765408
2023-01-05T05:29:48.467Z,9.765408
2023-01-05T05:30:46.705Z,9.765408
2023-01-05T05:31:46.763Z,9.765408
2023-01-05T05:32:48.797Z,9.765408
2023-01-05T05:33:46.682Z,9.765408
2023-01-05T05:34:46.672Z,9.765408
2023-01-05T05:35:49.154Z,9.765408
2023-01-05T05:36:46.673Z,9.765408
2023-01-05T05:37:50.149Z,9.765408
2023-01-05T05:38:49.764Z,9.765408
2023-01-05T05:39:46.618Z,9.765408
2023-01-05T05:40:46.632Z,9.765408
2023-01-05T05:41:50.272Z,9.765408
2023-01-05T05:42:47.588Z,9.765408
2023-01-05T05:43:46.572Z,9.765408
2023-01-05T05:44:48.266Z,9.765408
2023-01-05T05:45:50.642Z,9.765408
2023-01-05T05:46:47.570Z,9.765408
2023-01-05T05:47:47.637Z,9.765408
2023-01-05T05:48:46.519Z,9.765408
2023-01-05T05:49:46.498Z,9.765408
2023-01-05T05:50:49.314Z,9.765408
2023-01-05T05:51:46.515Z,9.765408
2023-01-05T05:52:46.485Z,9.765408
2023-01-05T05:53:46.479Z,9.765408
2023-01-05T05:54:46.460Z,9.765408
2023-01-05T05:55:46.452Z,9.765408
2023-01-05T05:56:46.463Z,9.765408
2023-01-05T05:57:46.425Z,9.765408
2023-01-05T05:58:46.425Z,9.765408
2023-01-05T05:59:53.189Z,9.765408
2023-01-05T06:00:46.714Z,9.765408
2023-01-05T06:01:49.112Z,9.765408
2023-01-05T06:02:46.478Z,9.765408
2023-01-05T06:03:46.455Z,9.765408
2023-01-05T06:04:46.370Z,9.765408
2023-01-05T06:05:46.514Z,9.765408
2023-01-05T06:06:46.356Z,9.765408
2023-01-05T06:07:46.395Z,9.765408
2023-01-05T06:08:47.108Z,9.765408
2023-01-05T06:09:46.380Z,9.765408
2023-01-05T06:10:46.494Z,9.765408
2023-01-05T06:11:46.333Z,9.765408
2023-01-05T06:12:46.393Z,9.765408
2023-01-05T06:13:46.558Z,9.765408
2023-01-05T06:14:46.299Z,9.765408
2023-01-05T06:15:47.331Z,9.765408
2023-01-05T06:16:46.523Z,9.765408
2023-01-05T06:17:46.274Z,9.765408
2023-01-05T06:18:46.297Z,9.765408
2023-01-05T06:19:46.241Z,9.765408
2023-01-05T06:20:46.207Z,9.765408
2023-01-05T06:21:46.203Z,9.765408
2023-01-05T06:22:46.182Z,9.765408
2023-01-05T06:23:46.215Z,9.765408
2023-01-05T06:24:46.230Z,9.765408
2023-01-05T06:25:46.169Z,9.765408
2023-01-05T06:26:46.185Z,9.765408
2023-01-05T06:27:46.146Z,9.765408
2023-01-05T06:28:46.135Z,9.765408
2023-01-05T06:29:46.114Z,9.765408
2023-01-05T06:30:46.110Z,9.765408
2023-01-05T06:31:46.167Z,9.765408
2023-01-05T06:32:46.096Z,9.765408
2023-01-05T06:33:46.131Z,9.765408
2023-01-05T06:34:46.092Z,9.765408
2023-01-05T06:35:46.055Z,9.765408
2023-01-05T06:36:46.124Z,9.765408
2023-01-05T06:37:46.023Z,9.765408
2023-01-05T06:38:46.031Z,9.765408
2023-01-05T06:39:46.063Z,9.765408
2023-01-05T06:40:46.016Z,9.765408
2023-01-05T06:41:45.997Z,9.765408
2023-01-05T06:42:47.444Z,9.765408
2023-01-05T06:43:45.983Z,9.765408
2023-01-05T06:44:45.962Z,9.765408
2023-01-05T06:45:47.461Z,9.765408
2023-01-05T06:46:45.995Z,9.765408
2023-01-05T06:47:45.937Z,9.765408
2023-01-05T06:48:47.472Z,9.765408
2023-01-05T06:49:45.943Z,9.765408
2023-01-05T06:50:45.939Z,9.765408
2023-01-05T06:51:47.641Z,9.765408
2023-01-05T06:52:45.883Z,9.765408
2023-01-05T06:53:45.878Z,9.765408
2023-01-05T06:54:47.469Z,9.765408
2023-01-05T06:55:46.919Z,9.765408
2023-01-05T06:56:47.920Z,9.765408
2023-01-05T17:31:34.430Z,9.762382
2023-01-05T17:32:34.427Z,9.762818
2023-01-05T17:33:34.444Z,9.762839
2023-01-05T17:34:34.401Z,9.762792
2023-01-05T17:35:34.401Z,9.762775
2023-01-05T17:36:34.396Z,9.762787
2023-01-05T17:37:34.362Z,9.762758
2023-01-05T17:38:34.379Z,9.762643
2023-01-05T17:39:34.517Z,9.762668
2023-01-05T17:40:34.396Z,9.762732
2023-01-05T17:42:34.308Z,9.762724
2023-01-05T17:43:34.380Z,9.762757
2023-01-05T17:44:34.316Z,9.762749
2023-01-05T17:45:34.296Z,9.762726
2023-01-05T17:46:34.304Z,9.762755
2023-01-05T17:48:34.291Z,9.762742
2023-01-05T17:49:35.274Z,9.762637
2023-01-05T17:50:34.257Z,9.762942
2023-01-05T17:51:34.229Z,9.762708
2023-01-05T17:52:34.227Z,9.762834
2023-01-05T17:53:34.258Z,9.762798
2023-01-05T17:54:34.221Z,9.762692
2023-01-05T17:55:34.265Z,9.762811
2023-01-05T17:56:34.186Z,9.762722
2023-01-05T17:57:34.173Z,9.762761
2023-01-05T17:58:34.198Z,9.762723
2023-01-05T17:59:34.153Z,9.762787
2023-01-05T18:00:34.140Z,9.762666
2023-01-05T18:01:34.295Z,9.762694
2023-01-05T18:02:34.185Z,9.762816
2023-01-05T18:03:34.139Z,9.762892
2023-01-05T18:04:34.135Z,9.762836
2023-01-05T18:05:34.099Z,9.762781
2023-01-05T18:06:34.120Z,9.762532
2023-01-05T18:07:34.068Z,9.762693
2023-01-05T18:08:34.081Z,9.762682
2023-01-05T18:09:34.060Z,9.762626
2023-01-05T18:10:34.054Z,9.762691
2023-01-05T18:12:34.025Z,9.762424
2023-01-05T18:13:34.046Z,9.761916
2023-01-05T18:14:34.004Z,9.762547
2023-01-05T18:15:34.018Z,9.762669
2023-01-05T18:16:33.983Z,9.762665
2023-01-05T18:17:33.964Z,9.762765
2023-01-05T18:19:33.997Z,9.762490
2023-01-05T18:22:34.931Z,9.762678
2023-01-05T18:23:33.916Z,9.762678
2023-01-05T18:24:33.915Z,9.763502
2023-01-05T18:25:33.886Z,9.763502
2023-01-05T18:26:33.884Z,9.763502
2023-01-05T18:27:33.985Z,9.763502
2023-01-05T18:28:33.882Z,9.762741
2023-01-05T18:29:33.827Z,9.762631
2023-01-05T18:30:33.835Z,9.762692
2023-01-05T18:31:35.858Z,9.762899
2023-01-05T18:32:33.851Z,9.762856
2023-01-05T18:33:33.814Z,9.762676
2023-01-05T18:34:33.965Z,9.762855
2023-01-05T18:35:35.108Z,9.762191
2023-01-05T18:36:33.801Z,9.762506
2023-01-05T18:37:33.787Z,9.762580
2023-01-05T18:38:33.807Z,9.762652
2023-01-05T18:39:33.973Z,9.762750
2023-01-05T18:40:33.884Z,9.762783
2023-01-05T18:41:33.888Z,9.762715
2023-01-05T18:42:33.779Z,9.762671
2023-01-05T18:43:33.867Z,9.762570
2023-01-05T18:44:33.762Z,9.762568
2023-01-05T18:45:39.152Z,9.762508
2023-01-05T18:46:35.942Z,9.762780
2023-01-05T18:47:33.860Z,9.762846
2023-01-05T18:48:33.759Z,9.762749
2023-01-05T18:49:34.923Z,9.762661
2023-01-05T18:50:33.752Z,9.762527
2023-01-05T18:51:33.715Z,9.762583
2023-01-05T18:52:33.647Z,9.762528
2023-01-05T18:53:33.734Z,9.762469
2023-01-05T18:54:33.679Z,9.762465
2023-01-05T18:55:33.779Z,9.762545
2023-01-05T18:56:33.613Z,9.762397
2023-01-05T18:57:40.143Z,9.762562
2023-01-05T18:58:34.655Z,9.762378
2023-01-05T18:59:33.703Z,9.762362
2023-01-05T19:00:33.704Z,9.762605
2023-01-05T19:01:34.436Z,9.762277
2023-01-05T19:02:33.601Z,9.762043
2023-01-05T19:03:33.887Z,9.761992
2023-01-05T19:04:33.936Z,9.761992
2023-01-05T19:05:33.611Z,9.761992
2023-01-05T19:06:33.567Z,9.761992
2023-01-05T19:07:33.525Z,9.761992
2023-01-05T19:08:33.771Z,9.761992
2023-01-05T19:09:34.744Z,9.761992
2023-01-05T19:10:33.496Z,9.761992
2023-01-05T19:11:33.499Z,9.761992
2023-01-05T19:12:33.570Z,9.761992
2023-01-05T19:13:33.817Z,9.761992
2023-01-05T19:14:33.554Z,9.761992
2023-01-05T19:15:33.819Z,9.761992
2023-01-05T19:16:33.445Z,9.761992
2023-01-05T19:17:33.462Z,9.761992
2023-01-05T19:18:33.791Z,9.761992
2023-01-05T19:19:33.620Z,9.761992
2023-01-05T19:20:33.721Z,9.761992
2023-01-05T19:21:33.511Z,9.761992
2023-01-05T19:22:33.672Z,9.761992
2023-01-05T19:23:33.506Z,9.761992
2023-01-05T19:24:33.532Z,9.761992
2023-01-05T19:25:33.501Z,9.761992
2023-01-05T19:26:33.459Z,9.761992
2023-01-05T19:27:33.423Z,9.761992
2023-01-05T19:28:34.316Z,9.761992
2023-01-05T19:29:33.774Z,9.761992
2023-01-05T19:30:33.470Z,9.761992
2023-01-05T19:31:33.330Z,9.761992
2023-01-05T19:32:33.515Z,9.761992
2023-01-05T19:33:33.258Z,9.761992
2023-01-05T19:34:33.223Z,9.761992
2023-01-05T19:35:33.356Z,9.761992
2023-01-05T19:36:33.365Z,9.761992
2023-01-05T19:37:34.459Z,9.761992
2023-01-05T19:38:33.342Z,9.761992
2023-01-05T19:39:33.483Z,9.761992
2023-01-05T19:40:33.473Z,9.761992
2023-01-05T19:41:33.343Z,9.761992
2023-01-05T19:42:33.199Z,9.761992
2023-01-05T19:43:33.426Z,9.761992
2023-01-05T19:44:33.376Z,9.761992
2023-01-05T19:45:33.143Z,9.761992
2023-01-05T19:46:33.176Z,9.761992
2023-01-05T19:47:33.501Z,9.761992
2023-01-05T19:48:33.183Z,9.761992
2023-01-05T19:49:33.143Z,9.761992
2023-01-05T19:50:33.460Z,9.761992
2023-01-05T19:51:33.242Z,9.761992
2023-01-05T19:52:33.335Z,9.761992
2023-01-05T19:53:33.161Z,9.761992
2023-01-05T19:54:33.196Z,9.761992
2023-01-05T19:55:33.099Z,9.761992
2023-01-05T19:56:34.531Z,9.761992
2023-01-05T19:57:33.021Z,9.761992
2023-01-05T19:58:33.063Z,9.761992
2023-01-05T19:59:33.045Z,9.761992
2023-01-05T20:00:32.981Z,9.761992
2023-01-05T20:01:32.993Z,9.761992
2023-01-05T20:02:32.969Z,9.761992
2023-01-05T20:03:33.068Z,9.761992
2023-01-05T20:04:32.943Z,9.761992
2023-01-05T20:05:33.049Z,9.761992
2023-01-05T20:06:33.022Z,9.761992
2023-01-05T20:07:33.136Z,9.761992
2023-01-05T20:08:32.967Z,9.761992
2023-01-05T20:09:32.923Z,9.761992
2023-01-05T20:10:33.244Z,9.761992
2023-01-05T20:12:14.827Z,9.761992
2023-01-05T20:12:33.818Z,9.762665
2023-01-05T20:13:32.823Z,9.762632
2023-01-05T20:14:33.229Z,9.762604
2023-01-05T20:15:33.139Z,9.762548
2023-01-05T20:16:32.922Z,9.762689
2023-01-05T20:17:32.807Z,9.762676
2023-01-05T20:18:33.074Z,9.762836
2023-01-05T20:19:32.882Z,9.762676
2023-01-05T20:20:32.940Z,9.763012
2023-01-05T20:21:32.818Z,9.762914
2023-01-05T20:22:32.760Z,9.762822
2023-01-05T20:23:32.993Z,9.762777
2023-01-05T20:24:32.745Z,9.762712
2023-01-05T20:25:32.724Z,9.762623
2023-01-05T20:26:32.857Z,9.762644
2023-01-05T20:27:32.690Z,9.762693
2023-01-05T20:28:32.721Z,9.762593
2023-01-05T20:29:33.227Z,9.762502
2023-01-05T20:30:32.663Z,9.762383
2023-01-05T20:31:32.780Z,9.762377
2023-01-05T20:32:32.755Z,9.762177
2023-01-05T20:33:32.660Z,9.762614
2023-01-05T20:34:32.659Z,9.762712
2023-01-05T20:35:32.733Z,9.762753
2023-01-05T20:36:32.605Z,9.762674
2023-01-05T20:37:32.723Z,9.762480
2023-01-05T20:38:32.638Z,9.762684
2023-01-05T20:39:32.668Z,9.762877
2023-01-05T20:40:32.617Z,9.762727
2023-01-05T20:41:32.613Z,9.762701
2023-01-05T20:42:32.561Z,9.763104
2023-01-05T20:43:32.542Z,9.763250
2023-01-05T20:44:32.570Z,9.762978
2023-01-05T20:45:32.523Z,9.762695
2023-01-05T20:46:32.599Z,9.763022
2023-01-05T20:47:43.083Z,9.762896
2023-01-05T20:48:34.462Z,9.762786
2023-01-05T20:49:32.474Z,9.762918
2023-01-05T20:50:32.704Z,9.762528
2023-01-05T20:51:32.565Z,9.762616
2023-01-05T20:52:32.465Z,9.762815
2023-01-05T20:53:32.455Z,9.762767
2023-01-05T20:54:32.878Z,9.762751
2023-01-05T20:55:32.435Z,9.762729
2023-01-05T20:56:32.544Z,9.762669
2023-01-05T20:57:32.712Z,9.762851
2023-01-05T20:58:32.608Z,9.762915
2023-01-05T20:59:32.449Z,9.762879
2023-01-05T21:00:32.482Z,9.762648
2023-01-05T21:01:32.383Z,9.763103
2023-01-05T21:02:32.423Z,9.762847
2023-01-05T21:03:32.355Z,9.762933
2023-01-05T21:04:32.376Z,9.763018
2023-01-05T21:05:32.612Z,9.762914
2023-01-05T21:06:32.341Z,9.763198
2023-01-05T21:07:32.372Z,9.761981
2023-01-05T21:08:32.480Z,9.762118
2023-01-05T21:09:32.463Z,9.762710
2023-01-05T21:10:32.511Z,9.762584
2023-01-05T21:11:32.474Z,9.762127
2023-01-05T21:12:32.233Z,9.762251
2023-01-05T21:13:33.251Z,9.762569
2023-01-05T21:14:33.467Z,9.762712
2023-01-05T21:15:32.232Z,9.762817
2023-01-05T21:16:32.312Z,9.762374
2023-01-05T21:17:32.347Z,9.762728
2023-01-05T21:18:32.179Z,9.762745
2023-01-05T21:19:32.525Z,9.762792
2023-01-05T21:20:32.298Z,9.762758
2023-01-05T21:21:32.244Z,9.762513
2023-01-05T21:22:32.182Z,9.762408
2023-01-05T21:23:32.330Z,9.762874
2023-01-05T21:24:32.343Z,9.762866
2023-01-05T21:26:06.391Z,9.762718
2023-01-05T21:26:33.277Z,9.762623
2023-01-05T21:27:32.103Z,9.762537
2023-01-05T21:28:32.131Z,9.762620
2023-01-05T21:29:32.118Z,9.762643
2023-01-05T21:30:32.224Z,9.762706
2023-01-05T21:31:32.115Z,9.762887
2023-01-05T21:32:32.404Z,9.762746
2023-01-05T21:33:32.033Z,9.762833
2023-01-05T21:34:32.504Z,9.761806
2023-01-05T21:35:32.029Z,9.762472
2023-01-05T21:36:32.050Z,9.762720
2023-01-05T21:37:32.012Z,9.762971
2023-01-05T21:39:00.867Z,9.762846
2023-01-05T21:39:33.098Z,9.762974
2023-01-05T21:40:32.000Z,9.762745
2023-01-05T21:41:31.972Z,9.763034
2023-01-05T21:42:31.985Z,9.762794
2023-01-05T21:43:31.970Z,9.762527
2023-01-05T21:44:31.997Z,9.762811
2023-01-05T21:45:31.992Z,9.762757
2023-01-05T21:46:31.904Z,9.762654
2023-01-05T21:47:31.869Z,9.762571
2023-01-05T21:48:31.905Z,9.762547
2023-01-05T21:49:31.894Z,9.762754
2023-01-05T21:50:31.898Z,9.762919
2023-01-05T21:51:31.880Z,9.762776
2023-01-05T21:52:31.865Z,9.762539
2023-01-05T21:53:31.921Z,9.763480
2023-01-05T21:54:31.808Z,9.763033
2023-01-05T21:55:32.088Z,9.762850
2023-01-05T21:56:31.810Z,9.762814
2023-01-05T21:57:31.990Z,9.762896
2023-01-05T21:58:32.114Z,9.762589
2023-01-05T21:59:31.801Z,9.762794
2023-01-05T22:00:31.929Z,9.762466
2023-01-05T22:01:32.079Z,9.762711
2023-01-05T22:02:32.078Z,9.762873
2023-01-05T22:03:31.902Z,9.762836
2023-01-05T22:04:31.948Z,9.763377
2023-01-05T22:05:31.756Z,9.763294
2023-01-05T22:06:31.865Z,9.763154
2023-01-05T22:07:31.717Z,9.762924
2023-01-05T22:08:31.836Z,9.762703
2023-01-05T22:09:31.706Z,9.762611
2023-01-05T22:10:31.668Z,9.762402
2023-01-05T22:11:31.980Z,9.762575
2023-01-05T22:12:31.641Z,9.762492
2023-01-05T22:13:31.643Z,9.762665
2023-01-05T22:14:31.656Z,9.762579
2023-01-05T22:15:31.787Z,9.762465
2023-01-05T22:16:31.662Z,9.762666
2023-01-05T22:17:31.896Z,9.762669
2023-01-05T22:18:31.619Z,9.762626
2023-01-05T22:19:31.608Z,9.762447
2023-01-05T22:20:31.630Z,9.762361
2023-01-05T22:21:31.588Z,9.762641
2023-01-05T22:22:31.557Z,9.762590
2023-01-05T22:23:31.761Z,9.762722
2023-01-05T22:24:31.735Z,9.762094
2023-01-05T22:25:31.904Z,9.762595
2023-01-05T22:26:31.568Z,9.762506
2023-01-05T22:27:31.572Z,9.762456
2023-01-05T22:28:31.534Z,9.762565
2023-01-05T22:29:31.488Z,9.762193
2023-01-05T22:30:31.671Z,9.762463
2023-01-05T22:31:31.527Z,9.762596
2023-01-05T22:32:31.451Z,9.762485
2023-01-05T22:33:31.494Z,9.762344
2023-01-05T22:34:31.431Z,9.762344
2023-01-05T22:35:31.743Z,9.762344
2023-01-05T22:36:31.578Z,9.762344
2023-01-05T22:37:31.386Z,9.762629
2023-01-05T22:38:31.396Z,9.762539
2023-01-05T22:39:31.408Z,9.762544
2023-01-05T22:40:31.498Z,9.762526
2023-01-05T22:41:31.381Z,9.762590
2023-01-05T22:42:31.445Z,9.762462
2023-01-05T22:43:31.409Z,9.762469
2023-01-05T22:44:32.590Z,9.762729
2023-01-05T22:45:31.391Z,9.762654
2023-01-05T22:46:32.913Z,9.762662
2023-01-05T22:47:32.857Z,9.762704
2023-01-05T22:48:31.332Z,9.762768
2023-01-05T22:49:31.350Z,9.762746
2023-01-05T22:50:31.295Z,9.762581
2023-01-05T22:51:31.261Z,9.762700
2023-01-05T22:52:31.322Z,9.762629
2023-01-05T22:53:32.353Z,9.762599
2023-01-05T22:54:33.237Z,9.763186
2023-01-05T22:55:33.877Z,9.762794
2023-01-05T22:56:31.215Z,9.762782
2023-01-05T22:57:31.200Z,9.762387
2023-01-05T22:58:31.180Z,9.762679
2023-01-05T22:59:31.268Z,9.762420
2023-01-05T23:00:31.185Z,9.762379
2023-01-05T23:01:31.148Z,9.762187
2023-01-05T23:02:31.178Z,9.762619
2023-01-05T23:03:31.505Z,9.762557
2023-01-05T23:04:31.093Z,9.762308
2023-01-05T23:05:31.132Z,9.762720
2023-01-05T23:06:31.106Z,9.762338
2023-01-05T23:07:31.095Z,9.762822
2023-01-05T23:08:31.312Z,9.763111
2023-01-05T23:09:31.072Z,9.763051
2023-01-05T23:10:31.103Z,9.762793
2023-01-05T23:11:31.118Z,9.762734
2023-01-05T23:12:31.032Z,9.762781
2023-01-05T23:13:31.050Z,9.762588
2023-01-05T23:14:31.029Z,9.762851
2023-01-05T23:15:31.126Z,9.763028
2023-01-05T23:16:31.051Z,9.763039
2023-01-05T23:17:31.000Z,9.763108
2023-01-05T23:18:30.999Z,9.763108
2023-01-05T23:19:30.970Z,9.763108
2023-01-05T23:20:30.968Z,9.763309
2023-01-05T23:21:30.973Z,9.763797
2023-01-05T23:22:30.927Z,9.763712
2023-01-05T23:23:30.944Z,9.763737
2023-01-05T23:24:31.050Z,9.763415
2023-01-05T23:25:30.925Z,9.763100
2023-01-05T23:26:30.898Z,9.763722
2023-01-05T23:27:30.896Z,9.763186
2023-01-05T23:28:30.887Z,9.762764
2023-01-05T23:29:30.928Z,9.762684
2023-01-05T23:30:30.922Z,9.762684
2023-01-05T23:31:30.916Z,9.762110
2023-01-05T23:32:31.867Z,9.762747
2023-01-05T23:33:30.865Z,9.762008
2023-01-05T23:34:30.873Z,9.762280
2023-01-05T23:35:30.906Z,9.762712
2023-01-05T23:36:30.873Z,9.762639
2023-01-05T23:37:30.821Z,9.762980
2023-01-05T23:38:30.781Z,9.762980
2023-01-05T23:39:32.417Z,9.762980
2023-01-05T23:40:30.792Z,9.762980
2023-01-05T23:41:30.788Z,9.762980
2023-01-05T23:42:30.754Z,9.762980
2023-01-05T23:43:30.727Z,9.762980
2023-01-05T23:44:30.726Z,9.762980
2023-01-05T23:45:30.974Z,9.762980
2023-01-05T23:46:30.766Z,9.762980
2023-01-05T23:47:30.801Z,9.762980
2023-01-05T23:48:30.718Z,9.762980
2023-01-05T23:49:30.680Z,9.762980
2023-01-05T23:50:30.664Z,9.762980
2023-01-05T23:51:31.691Z,9.762980
2023-01-05T23:52:30.646Z,9.762980
2023-01-05T23:53:30.629Z,9.762980
2023-01-05T23:54:30.622Z,9.762980
2023-01-05T23:55:30.629Z,9.762980
2023-01-05T23:56:30.611Z,9.762980
2023-01-05T23:57:30.628Z,9.762980
2023-01-05T23:58:30.588Z,9.762980
2023-01-05T23:59:30.569Z,9.762980
